Welcome to Northern Hawkes Bay. New Zealand.
PWS Header
      nz Flag



Hit Counter


W3C Valid W3C Valid logo


    Wairoa

Select any of the Stations below to visit their websites.










Historic Data from Weather Underground
Select the location of interest below. Wairoa is the default. Please have patience, this Data is slow to load in.
Northern Hawkes Bay Historical Data
Daily Summary for August 13, 2017 Units:  Metric    English   Both
« Previous Day
Next Day »
Daily Weekly Monthly Yearly Custom
  High: Low: Average:
Temperature: 19.5 °C 8.5 °C 13.2 °C
Dew Point: 8.9 °C 4.4 °C 6.2 °C
Humidity: 84% 38% 64%
Wind Speed: 19.5km/h 0.0km/h 5km/h
Wind Gust: 30.6km/h - -
Wind- - West
Pressure: 1009.7 hPa 1007.3 hPa -
Precipitation: 0.0 mm    
Historical Graphs
 
 
Tabular Data for August 13, 2017
Time Temperature Dew Point Pressure Wind Wind Speed Wind Gust Humidity Rainfall Rate (Hourly) solar
00:04 9.9 °C 7.2 °C 1007.7 hPa NNW 3.5 km/h 7.2 km/h 83% 0.0 mm 0 W/m2
00:10 9.4 °C 6.7 °C 1007.7 hPa NNW 2.6 km/h 5.0 km/h 83% 0.0 mm 0 W/m2
00:15 9.2 °C 6.7 °C 1007.7 hPa North 2.6 km/h 5.0 km/h 84% 0.0 mm 0 W/m2
00:20 9.1 °C 6.6 °C 1007.7 hPa North 1.1 km/h 5.0 km/h 84% 0.0 mm 0 W/m2
00:25 9.1 °C 6.6 °C 1007.7 hPa NNE 1.1 km/h 3.5 km/h 84% 0.0 mm 0 W/m2
00:30 9.0 °C 6.4 °C 1007.7 hPa NNE 3.5 km/h 6.1 km/h 84% 0.0 mm 0 W/m2
00:35 9.1 °C 6.6 °C 1007.7 hPa NNW 7.2 km/h 9.7 km/h 84% 0.0 mm 0 W/m2
00:40 10.1 °C 7.2 °C 1007.7 hPa NNW 8.7 km/h 13.4 km/h 82% 0.0 mm 0 W/m2
00:45 10.7 °C 7.0 °C 1007.7 hPa NW 6.1 km/h 13.4 km/h 78% 0.0 mm 0 W/m2
00:50 10.6 °C 6.6 °C 1007.7 hPa NW 6.1 km/h 13.4 km/h 76% 0.0 mm 0 W/m2
00:56 10.4 °C 6.3 °C 1007.7 hPa NW 6.1 km/h 11.1 km/h 76% 0.0 mm 0 W/m2
01:01 10.3 °C 6.3 °C 1007.7 hPa NNW 7.2 km/h 11.1 km/h 76% 0.0 mm 0 W/m2
01:06 10.3 °C 6.3 °C 1007.7 hPa NNW 5.0 km/h 11.1 km/h 76% 0.0 mm 0 W/m2
01:11 10.2 °C 6.2 °C 1007.7 hPa Calm   9.7 km/h 76% 0.0 mm 0 W/m2
01:16 10.2 °C 6.2 °C 1007.7 hPa NNW 2.6 km/h 8.7 km/h 76% 0.0 mm 0 W/m2
01:21 10.2 °C 5.9 °C 1008.0 hPa North 3.5 km/h 8.7 km/h 75% 0.0 mm 0 W/m2
01:26 10.3 °C 6.1 °C 1008.0 hPa Calm   7.2 km/h 75% 0.0 mm 0 W/m2
01:31 10.3 °C 6.1 °C 1007.7 hPa North 2.6 km/h 7.2 km/h 75% 0.0 mm 0 W/m2
01:36 10.4 °C 5.9 °C 1008.0 hPa North 3.5 km/h 7.2 km/h 74% 0.0 mm 0 W/m2
01:41 10.4 °C 5.9 °C 1007.7 hPa North 3.5 km/h 6.1 km/h 74% 0.0 mm 0 W/m2
01:46 10.3 °C 5.9 °C 1007.7 hPa North 2.6 km/h 6.1 km/h 74% 0.0 mm 0 W/m2
01:51 10.1 °C 5.7 °C 1008.0 hPa NNW 3.5 km/h 5.0 km/h 74% 0.0 mm 0 W/m2
01:57 10.0 °C 5.8 °C 1008.0 hPa NNW 5.0 km/h 7.2 km/h 75% 0.0 mm 0 W/m2
02:02 9.8 °C 5.8 °C 1007.7 hPa NNW 7.2 km/h 8.7 km/h 76% 0.0 mm 0 W/m2
02:07 9.7 °C 5.7 °C 1007.7 hPa NNW 5.0 km/h 8.7 km/h 76% 0.0 mm 0 W/m2
02:12 9.7 °C 5.7 °C 1007.3 hPa NNW 5.0 km/h 8.7 km/h 76% 0.0 mm 0 W/m2
02:18 9.6 °C 5.6 °C 1007.3 hPa NNW 5.0 km/h 7.2 km/h 76% 0.0 mm 0 W/m2
02:23 9.8 °C 5.8 °C 1007.3 hPa North 3.5 km/h 7.2 km/h 76% 0.0 mm 0 W/m2
02:28 9.8 °C 5.6 °C 1007.3 hPa NNW 6.1 km/h 7.2 km/h 75% 0.0 mm 0 W/m2
02:33 9.6 °C 5.6 °C 1007.3 hPa NW 5.0 km/h 7.2 km/h 76% 0.0 mm 0 W/m2
02:38 9.6 °C 5.6 °C 1007.3 hPa NW 5.0 km/h 7.2 km/h 76% 0.0 mm 0 W/m2
02:55 9.2 °C 5.6 °C 1007.7 hPa NW 3.5 km/h 7.2 km/h 78% 0.0 mm 0 W/m2
03:00 9.3 °C 5.5 °C 1007.3 hPa NW 3.5 km/h 7.2 km/h 77% 0.0 mm 0 W/m2
03:05 9.2 °C 5.4 °C 1007.3 hPa NW 3.5 km/h 7.2 km/h 77% 0.0 mm 0 W/m2
03:10 9.0 °C 5.2 °C 1007.3 hPa NW 2.6 km/h 7.2 km/h 77% 0.0 mm 0 W/m2
03:15 8.7 °C 5.1 °C 1007.7 hPa NW 2.6 km/h 6.1 km/h 78% 0.0 mm 0 W/m2
03:20 8.5 °C 5.1 °C 1007.3 hPa NNW 1.1 km/h 6.1 km/h 79% 0.0 mm 0 W/m2
03:25 8.5 °C 5.1 °C 1007.3 hPa NW 2.6 km/h 5.0 km/h 79% 0.0 mm 0 W/m2
03:30 8.6 °C 5.2 °C 1007.7 hPa NNW 2.6 km/h 6.1 km/h 79% 0.0 mm 0 W/m2
03:35 8.6 °C 5.2 °C 1007.7 hPa North 3.5 km/h 6.1 km/h 79% 0.0 mm 0 W/m2
03:40 8.7 °C 5.3 °C 1007.7 hPa North 1.1 km/h 5.0 km/h 79% 0.0 mm 0 W/m2
03:46 8.5 °C 5.1 °C 1007.7 hPa NNW 2.6 km/h 5.0 km/h 79% 0.0 mm 0 W/m2
03:51 8.5 °C 5.1 °C 1007.7 hPa North 2.6 km/h 5.0 km/h 79% 0.0 mm 0 W/m2
03:56 8.5 °C 5.1 °C 1007.7 hPa NNW 2.6 km/h 6.1 km/h 79% 0.0 mm 0 W/m2
04:01 8.5 °C 5.1 °C 1007.7 hPa NW 5.0 km/h 6.1 km/h 79% 0.0 mm 0 W/m2
04:06 8.9 °C 5.3 °C 1007.7 hPa NNW 3.5 km/h 9.7 km/h 78% 0.0 mm 0 W/m2
04:11 9.6 °C 5.6 °C 1008.0 hPa Calm   9.7 km/h 76% 0.0 mm 0 W/m2
04:16 9.9 °C 5.7 °C 1008.0 hPa Calm   6.1 km/h 75% 0.0 mm 0 W/m2
04:21 10.0 °C 5.6 °C 1008.0 hPa NW 1.1 km/h 6.1 km/h 74% 0.0 mm 0 W/m2
04:26 9.9 °C 5.5 °C 1008.0 hPa NW 1.1 km/h 5.0 km/h 74% 0.0 mm 0 W/m2
04:31 10.1 °C 5.5 °C 1008.4 hPa NNW 2.6 km/h 5.0 km/h 73% 0.0 mm 0 W/m2
04:36 10.0 °C 5.4 °C 1008.4 hPa NNW 1.1 km/h 5.0 km/h 73% 0.0 mm 0 W/m2
04:41 10.2 °C 5.6 °C 1008.4 hPa North 1.1 km/h 5.0 km/h 73% 0.0 mm 0 W/m2
04:46 10.1 °C 5.3 °C 1008.4 hPa North 2.6 km/h 5.0 km/h 72% 0.0 mm 0 W/m2
04:51 10.4 °C 5.8 °C 1008.0 hPa NW 3.5 km/h 5.0 km/h 73% 0.0 mm 0 W/m2
04:56 10.6 °C 5.6 °C 1008.4 hPa NNW 5.0 km/h 7.2 km/h 71% 0.0 mm 0 W/m2
05:01 10.3 °C 5.1 °C 1008.0 hPa North 3.5 km/h 7.2 km/h 70% 0.0 mm 0 W/m2
05:06 10.1 °C 5.3 °C 1008.0 hPa North 3.5 km/h 7.2 km/h 72% 0.0 mm 0 W/m2
05:11 10.2 °C 5.4 °C 1008.0 hPa North 7.2 km/h 8.7 km/h 72% 0.0 mm 0 W/m2
05:16 10.5 °C 5.7 °C 1008.0 hPa North 3.5 km/h 9.7 km/h 72% 0.0 mm 0 W/m2
05:21 10.6 °C 5.6 °C 1008.0 hPa North 5.0 km/h 9.7 km/h 71% 0.0 mm 0 W/m2
05:26 10.8 °C 5.6 °C 1008.0 hPa North 3.5 km/h 8.7 km/h 70% 0.0 mm 0 W/m2
05:31 10.8 °C 5.6 °C 1008.4 hPa North 1.1 km/h 7.2 km/h 70% 0.0 mm 0 W/m2
05:36 10.5 °C 5.3 °C 1008.4 hPa North 2.6 km/h 6.1 km/h 70% 0.0 mm 0 W/m2
05:41 10.2 °C 5.2 °C 1008.4 hPa NNW 1.1 km/h 5.0 km/h 71% 0.0 mm 0 W/m2
05:46 9.6 °C 5.0 °C 1008.0 hPa NNW 2.6 km/h 5.0 km/h 73% 0.0 mm 0 W/m2
05:51 9.3 °C 4.9 °C 1008.4 hPa NW 3.5 km/h 5.0 km/h 74% 0.0 mm 0 W/m2
06:01 9.2 °C 5.0 °C 1008.4 hPa North 1.1 km/h 5.0 km/h 75% 0.0 mm 0 W/m2
06:06 9.0 °C 5.0 °C 1008.4 hPa North 1.1 km/h 6.1 km/h 76% 0.0 mm 0 W/m2
06:11 9.0 °C 5.0 °C 1008.4 hPa North 1.1 km/h 6.1 km/h 76% 0.0 mm 0 W/m2
06:16 8.9 °C 5.1 °C 1008.4 hPa North 1.1 km/h 3.5 km/h 77% 0.0 mm 0 W/m2
06:18 9.0 °C 5.0 °C 1008.4 hPa Calm   3.5 km/h 76% 0.0 mm 0 W/m2
06:23 9.0 °C 5.0 °C 1008.4 hPa Calm   3.5 km/h 76% 0.0 mm 0 W/m2
06:28 9.0 °C 5.0 °C 1008.4 hPa Calm   1.1 km/h 76% 0.0 mm 0 W/m2
06:33 9.1 °C 5.1 °C 1008.4 hPa NNW 3.5 km/h 5.0 km/h 76% 0.0 mm 0 W/m2
06:38 9.3 °C 5.1 °C 1008.4 hPa North 3.5 km/h 6.1 km/h 75% 0.0 mm 0 W/m2
06:43 9.5 °C 5.3 °C 1008.4 hPa North 6.1 km/h 8.7 km/h 75% 0.0 mm 0 W/m2
06:48 10.0 °C 5.4 °C 1008.4 hPa North 3.5 km/h 8.7 km/h 73% 0.0 mm 0 W/m2
06:53 10.2 °C 5.4 °C 1008.7 hPa NNE 5.0 km/h 8.7 km/h 72% 0.0 mm 0 W/m2
06:58 10.6 °C 5.3 °C 1008.7 hPa North 5.0 km/h 9.7 km/h 70% 0.0 mm 0 W/m2
07:03 10.8 °C 5.3 °C 1008.7 hPa North 5.0 km/h 9.7 km/h 69% 0.0 mm 0 W/m2
07:08 10.8 °C 5.1 °C 1008.7 hPa North 3.5 km/h 9.7 km/h 68% 0.0 mm 1 W/m2
07:13 11.0 °C 5.1 °C 1008.4 hPa NNE 2.6 km/h 9.7 km/h 67% 0.0 mm 3 W/m2
07:18 11.0 °C 5.1 °C 1008.7 hPa NNE 3.5 km/h 12.2 km/h 67% 0.0 mm 6 W/m2
07:23 10.8 °C 5.1 °C 1008.7 hPa NNE 2.6 km/h 12.2 km/h 68% 0.0 mm 8 W/m2
07:28 10.8 °C 5.1 °C 1008.7 hPa North 2.6 km/h 7.2 km/h 68% 0.0 mm 11 W/m2
07:33 11.0 °C 5.1 °C 1008.7 hPa North 2.6 km/h 7.2 km/h 67% 0.0 mm 17 W/m2
07:38 11.1 °C 5.0 °C 1008.7 hPa NNE 3.5 km/h 7.2 km/h 66% 0.0 mm 20 W/m2
07:43 11.1 °C 5.0 °C 1008.7 hPa Calm   7.2 km/h 66% 0.0 mm 23 W/m2
07:48 10.9 °C 5.2 °C 1008.7 hPa North 2.6 km/h 6.1 km/h 68% 0.0 mm 27 W/m2
07:53 11.0 °C 5.1 °C 1008.4 hPa North 2.6 km/h 6.1 km/h 67% 0.0 mm 30 W/m2
07:58 11.4 °C 5.3 °C 1008.7 hPa North 3.5 km/h 7.2 km/h 66% 0.0 mm 34 W/m2
08:03 11.6 °C 5.4 °C 1008.7 hPa North 1.1 km/h 7.2 km/h 66% 0.0 mm 39 W/m2
08:08 11.6 °C 5.4 °C 1009.0 hPa North 2.6 km/h 6.1 km/h 66% 0.0 mm 45 W/m2
08:13 11.8 °C 5.7 °C 1009.0 hPa Calm   6.1 km/h 66% 0.0 mm 51 W/m2
08:18 12.0 °C 5.6 °C 1008.7 hPa NE 2.6 km/h 5.0 km/h 65% 0.0 mm 58 W/m2
08:23 12.0 °C 5.6 °C 1008.7 hPa NE 1.1 km/h 3.5 km/h 65% 0.0 mm 63 W/m2
08:28 12.1 °C 5.7 °C 1008.7 hPa Calm   3.5 km/h 65% 0.0 mm 70 W/m2
08:33 12.0 °C 5.6 °C 1008.7 hPa Calm   2.6 km/h 65% 0.0 mm 77 W/m2
08:39 11.8 °C 5.7 °C 1009.0 hPa Calm   3.5 km/h 66% 0.0 mm 85 W/m2
08:44 11.9 °C 5.9 °C 1008.7 hPa Calm   3.5 km/h 67% 0.0 mm 86 W/m2
08:50 12.2 °C 6.1 °C 1009.0 hPa Calm     66% 0.0 mm 93 W/m2
08:56 12.6 °C 6.4 °C 1009.0 hPa Calm     66% 0.0 mm 105 W/m2
09:01 13.0 °C 6.8 °C 1008.7 hPa North 1.1 km/h 2.6 km/h 66% 0.0 mm 105 W/m2
09:06 13.3 °C 6.9 °C 1008.7 hPa NNE 1.1 km/h 3.5 km/h 65% 0.0 mm 118 W/m2
09:11 13.7 °C 7.0 °C 1009.0 hPa North 2.6 km/h 5.0 km/h 64% 0.0 mm 139 W/m2
09:16 14.1 °C 6.7 °C 1009.0 hPa North 5.0 km/h 6.1 km/h 61% 0.0 mm 137 W/m2
09:21 14.5 °C 6.6 °C 1009.0 hPa NNE 1.1 km/h 6.1 km/h 59% 0.0 mm 135 W/m2
09:26 14.6 °C 6.2 °C 1009.0 hPa NNE 1.1 km/h 7.2 km/h 57% 0.0 mm 122 W/m2
09:31 14.5 °C 5.8 °C 1009.0 hPa NNE 5.0 km/h 9.7 km/h 56% 0.0 mm 124 W/m2
09:36 14.4 °C 5.7 °C 1009.0 hPa NNE 5.0 km/h 9.7 km/h 56% 0.0 mm 124 W/m2
09:37 14.4 °C 5.7 °C 1009.0 hPa NNE 6.1 km/h 9.7 km/h 56% 0.0 mm 122 W/m2
09:42 14.5 °C 5.8 °C 1009.0 hPa NNE 5.0 km/h 9.7 km/h 56% 0.0 mm 119 W/m2
09:47 14.4 °C 5.7 °C 1009.0 hPa North 3.5 km/h 11.1 km/h 56% 0.0 mm 123 W/m2
09:52 14.5 °C 6.1 °C 1009.0 hPa North 3.5 km/h 11.1 km/h 57% 0.0 mm 131 W/m2
09:57 14.7 °C 6.3 °C 1009.4 hPa North 3.5 km/h 9.7 km/h 57% 0.0 mm 136 W/m2
10:02 15.0 °C 6.1 °C 1009.4 hPa North 5.0 km/h 8.7 km/h 55% 0.0 mm 150 W/m2
10:07 15.4 °C 6.2 °C 1009.4 hPa North 2.6 km/h 8.7 km/h 54% 0.0 mm 157 W/m2
10:12 15.6 °C 6.1 °C 1009.4 hPa NNW 3.5 km/h 8.7 km/h 53% 0.0 mm 158 W/m2
10:17 15.6 °C 6.1 °C 1009.4 hPa North 5.0 km/h 9.7 km/h 53% 0.0 mm 151 W/m2
10:22 15.6 °C 6.1 °C 1009.4 hPa North 3.5 km/h 9.7 km/h 53% 0.0 mm 145 W/m2
10:27 15.4 °C 5.6 °C 1009.4 hPa NNW 7.2 km/h 13.4 km/h 52% 0.0 mm 144 W/m2
10:32 15.3 °C 5.8 °C 1009.4 hPa NNW 6.1 km/h 13.4 km/h 53% 0.0 mm 146 W/m2
10:37 15.3 °C 5.8 °C 1009.4 hPa NNW 7.2 km/h 13.4 km/h 53% 0.0 mm 149 W/m2
10:39 15.3 °C 5.5 °C 1009.4 hPa North 6.1 km/h 13.4 km/h 52% 0.0 mm 152 W/m2
10:44 15.3 °C 5.8 °C 1009.4 hPa North 5.0 km/h 12.2 km/h 53% 0.0 mm 148 W/m2
10:49 15.4 °C 5.6 °C 1009.4 hPa North 7.2 km/h 17.2 km/h 52% 0.0 mm 158 W/m2
10:54 15.4 °C 5.6 °C 1009.4 hPa North 9.7 km/h 17.2 km/h 52% 0.0 mm 157 W/m2
10:59 15.4 °C 5.6 °C 1009.4 hPa North 11.1 km/h 17.2 km/h 52% 0.0 mm 145 W/m2
11:04 15.4 °C 5.9 °C 1009.4 hPa North 7.2 km/h 17.2 km/h 53% 0.0 mm 142 W/m2
11:09 15.4 °C 5.9 °C 1009.7 hPa North 8.7 km/h 18.3 km/h 53% 0.0 mm 141 W/m2
11:14 15.4 °C 5.9 °C 1009.4 hPa North 7.2 km/h 18.3 km/h 53% 0.0 mm 150 W/m2
11:19 15.5 °C 5.9 °C 1009.4 hPa NNW 9.7 km/h 20.9 km/h 53% 0.0 mm 164 W/m2
11:24 15.6 °C 6.1 °C 1009.4 hPa NW 17.2 km/h 20.9 km/h 53% 0.0 mm 189 W/m2
11:29 15.8 °C 5.9 °C 1009.4 hPa NNW 13.4 km/h 20.9 km/h 52% 0.0 mm 189 W/m2
11:34 15.9 °C 5.5 °C 1009.4 hPa North 15.8 km/h 24.5 km/h 50% 0.0 mm 201 W/m2
11:39 16.1 °C 5.4 °C 1009.4 hPa North 14.8 km/h 27.0 km/h 49% 0.0 mm 218 W/m2
11:44 16.2 °C 5.5 °C 1009.4 hPa NNW 12.2 km/h 27.0 km/h 49% 0.0 mm 226 W/m2
11:49 16.4 °C 6.2 °C 1009.0 hPa NNW 9.7 km/h 23.3 km/h 51% 0.0 mm 225 W/m2
11:54 16.5 °C 6.3 °C 1009.4 hPa NNW 9.7 km/h 27.0 km/h 51% 0.0 mm 230 W/m2
11:59 16.6 °C 5.8 °C 1009.4 hPa NNW 13.4 km/h 27.0 km/h 49% 0.0 mm 222 W/m2
12:04 16.6 °C 5.2 °C 1009.0 hPa NNW 13.4 km/h 23.3 km/h 47% 0.0 mm 231 W/m2
12:09 16.6 °C 5.6 °C 1009.0 hPa NNW 15.8 km/h 23.3 km/h 48% 0.0 mm 226 W/m2
12:14 16.8 °C 5.4 °C 1008.7 hPa NNW 12.2 km/h 21.9 km/h 47% 0.0 mm 231 W/m2
12:19 16.9 °C 5.2 °C 1008.7 hPa NNW 12.2 km/h 23.3 km/h 46% 0.0 mm 239 W/m2
12:24 17.0 °C 5.3 °C 1008.7 hPa NNW 12.2 km/h 23.3 km/h 46% 0.0 mm 242 W/m2
12:29 17.2 °C 5.5 °C 1008.4 hPa NNW 15.8 km/h 21.9 km/h 46% 0.0 mm 254 W/m2
12:35 17.2 °C 5.8 °C 1008.4 hPa NNW 12.2 km/h 21.9 km/h 47% 0.0 mm 246 W/m2
12:40 17.3 °C 5.3 °C 1008.4 hPa North 18.3 km/h 24.5 km/h 45% 0.0 mm 278 W/m2
12:45 17.5 °C 5.4 °C 1008.4 hPa North 11.1 km/h 25.6 km/h 45% 0.0 mm 260 W/m2
12:50 17.6 °C 5.6 °C 1008.4 hPa North 12.2 km/h 25.6 km/h 45% 0.0 mm 238 W/m2
12:55 17.5 °C 5.4 °C 1008.4 hPa North 11.1 km/h 21.9 km/h 45% 0.0 mm 226 W/m2
13:00 17.5 °C 5.4 °C 1008.0 hPa North 11.1 km/h 20.9 km/h 45% 0.0 mm 222 W/m2
13:05 17.5 °C 5.4 °C 1008.4 hPa NNW 13.4 km/h 20.9 km/h 45% 0.0 mm 212 W/m2
13:10 17.4 °C 5.3 °C 1008.0 hPa NNW 7.2 km/h 20.9 km/h 45% 0.0 mm 207 W/m2
13:16 17.7 °C 5.9 °C 1008.0 hPa NNW 13.4 km/h 19.5 km/h 46% 0.0 mm 220 W/m2
13:21 17.7 °C 5.9 °C 1008.0 hPa NNW 8.7 km/h 18.3 km/h 46% 0.0 mm 206 W/m2
13:26 17.8 °C 6.1 °C 1008.0 hPa NNW 8.7 km/h 19.5 km/h 46% 0.0 mm 201 W/m2
13:31 17.9 °C 6.1 °C 1008.0 hPa North 6.1 km/h 19.5 km/h 46% 0.0 mm 192 W/m2
13:36 17.9 °C 6.4 °C 1008.0 hPa North 12.2 km/h 20.9 km/h 47% 0.0 mm 176 W/m2
13:41 17.7 °C 5.6 °C 1007.7 hPa NNW 8.7 km/h 25.6 km/h 45% 0.0 mm 169 W/m2
13:46 17.6 °C 4.6 °C 1007.7 hPa NW 15.8 km/h 30.6 km/h 42% 0.0 mm 161 W/m2
13:51 17.5 °C 4.8 °C 1007.7 hPa NW 19.5 km/h 30.6 km/h 43% 0.0 mm 152 W/m2
13:56 17.5 °C 4.8 °C 1007.7 hPa NW 9.7 km/h 27.0 km/h 43% 0.0 mm 144 W/m2
14:01 17.6 °C 5.6 °C 1007.7 hPa NNW 8.7 km/h 24.5 km/h 45% 0.0 mm 134 W/m2
14:06 17.9 °C 6.7 °C 1007.7 hPa NNW 6.1 km/h 18.3 km/h 48% 0.0 mm 132 W/m2
14:11 18.1 °C 6.6 °C 1007.7 hPa NNW 7.2 km/h 13.4 km/h 47% 0.0 mm 117 W/m2
14:16 18.4 °C 6.6 °C 1007.7 hPa NNW 9.7 km/h 14.8 km/h 46% 0.0 mm 103 W/m2
14:21 18.5 °C 7.0 °C 1007.7 hPa North 6.1 km/h 14.8 km/h 47% 0.0 mm 109 W/m2
14:26 19.1 °C 6.9 °C 1007.7 hPa North 9.7 km/h 14.8 km/h 45% 0.0 mm 105 W/m2
14:31 19.0 °C 6.5 °C 1007.7 hPa NNW 9.7 km/h 15.8 km/h 44% 0.0 mm 104 W/m2
14:36 18.7 °C 6.6 °C 1007.7 hPa NW 6.1 km/h 15.8 km/h 45% 0.0 mm 110 W/m2
14:41 18.5 °C 6.3 °C 1007.7 hPa NNW 8.7 km/h 17.2 km/h 45% 0.0 mm 118 W/m2
14:46 18.5 °C 6.3 °C 1007.7 hPa NNW 9.7 km/h 21.9 km/h 45% 0.0 mm 116 W/m2
14:51 18.5 °C 6.3 °C 1007.7 hPa NW 8.7 km/h 21.9 km/h 45% 0.0 mm 116 W/m2
14:56 18.3 °C 6.2 °C 1007.7 hPa NW 14.8 km/h 23.3 km/h 45% 0.0 mm 116 W/m2
15:01 18.0 °C 5.9 °C 1007.3 hPa NW 15.8 km/h 25.6 km/h 45% 0.0 mm 120 W/m2
15:06 17.7 °C 4.6 °C 1007.7 hPa NW 15.8 km/h 25.6 km/h 42% 0.0 mm 118 W/m2
15:11 17.6 °C 4.6 °C 1007.7 hPa NW 9.7 km/h 25.6 km/h 42% 0.0 mm 113 W/m2
15:17 17.4 °C 4.7 °C 1007.7 hPa NW 9.7 km/h 21.9 km/h 43% 0.0 mm 102 W/m2
15:23 17.5 °C 4.4 °C 1007.7 hPa NW 11.1 km/h 20.9 km/h 42% 0.0 mm 124 W/m2
15:28 18.3 °C 5.5 °C 1007.3 hPa NW 14.8 km/h 24.5 km/h 43% 0.0 mm 216 W/m2
15:29 18.5 °C 5.3 °C 1007.7 hPa NW 9.7 km/h 24.5 km/h 42% 0.0 mm 217 W/m2
15:31 18.9 °C 5.4 °C 1007.3 hPa NW 18.3 km/h 24.5 km/h 41% 0.0 mm 212 W/m2
15:34 19.1 °C 4.8 °C 1007.7 hPa WNW 13.4 km/h 28.0 km/h 39% 0.0 mm 208 W/m2
15:39 19.1 °C 5.2 °C 1007.3 hPa NW 18.3 km/h 28.0 km/h 40% 0.0 mm 161 W/m2
15:44 19.2 °C 4.6 °C 1007.3 hPa NW 14.8 km/h 24.5 km/h 38% 0.0 mm 180 W/m2
15:49 19.3 °C 5.0 °C 1007.7 hPa NW 14.8 km/h 24.5 km/h 39% 0.0 mm 168 W/m2
16:06 19.4 °C 5.1 °C 1007.7 hPa WNW 13.4 km/h 24.5 km/h 39% 0.0 mm 124 W/m2
16:11 19.5 °C 5.6 °C 1007.7 hPa WNW 11.1 km/h 21.9 km/h 40% 0.0 mm 118 W/m2
16:14 19.4 °C 5.4 °C 1007.7 hPa WNW 18.3 km/h 23.3 km/h 40% 0.0 mm 104 W/m2
16:19 19.1 °C 5.2 °C 1007.7 hPa NW 11.1 km/h 24.5 km/h 40% 0.0 mm 88 W/m2
16:24 18.6 °C 5.8 °C 1007.3 hPa NW 13.4 km/h 24.5 km/h 43% 0.0 mm 74 W/m2
16:29 18.4 °C 6.3 °C 1007.7 hPa NW 14.8 km/h 21.9 km/h 45% 0.0 mm 70 W/m2
16:34 18.1 °C 5.3 °C 1007.7 hPa NW 11.1 km/h 24.5 km/h 43% 0.0 mm 62 W/m2
16:39 17.9 °C 5.2 °C 1007.7 hPa NW 9.7 km/h 24.5 km/h 43% 0.0 mm 52 W/m2
16:44 17.6 °C 4.9 °C 1008.0 hPa NW 17.2 km/h 29.4 km/h 43% 0.0 mm 39 W/m2
16:49 17.3 °C 4.9 °C 1008.0 hPa NW 11.1 km/h 29.4 km/h 44% 0.0 mm 25 W/m2
16:54 16.7 °C 5.3 °C 1008.0 hPa NW 9.7 km/h 29.4 km/h 47% 0.0 mm 17 W/m2
16:59 16.7 °C 5.9 °C 1008.0 hPa NW 6.1 km/h 17.2 km/h 49% 0.0 mm 10 W/m2
17:04 16.4 °C 5.9 °C 1008.0 hPa NW 2.6 km/h 14.8 km/h 50% 0.0 mm 6 W/m2
17:09 16.3 °C 6.2 °C 1008.0 hPa North 3.5 km/h 9.7 km/h 51% 0.0 mm 4 W/m2
17:14 16.0 °C 6.4 °C 1008.0 hPa Calm   8.7 km/h 53% 0.0 mm 1 W/m2
17:19 15.7 °C 6.7 °C 1008.0 hPa Calm   6.1 km/h 55% 0.0 mm 0 W/m2
17:24 15.5 °C 6.5 °C 1008.0 hPa Calm   3.5 km/h 55% 0.0 mm 0 W/m2
17:29 15.3 °C 6.8 °C 1008.4 hPa South 1.1 km/h 3.5 km/h 57% 0.0 mm 0 W/m2
17:34 15.0 °C 6.6 °C 1008.4 hPa Calm   3.5 km/h 57% 0.0 mm 0 W/m2
17:39 15.0 °C 6.6 °C 1008.4 hPa Calm   3.5 km/h 57% 0.0 mm 0 W/m2
17:44 14.9 °C 6.9 °C 1008.4 hPa NNW 2.6 km/h 5.0 km/h 59% 0.0 mm 0 W/m2
17:49 14.6 °C 6.7 °C 1008.4 hPa NW 2.6 km/h 5.0 km/h 59% 0.0 mm 0 W/m2
17:54 14.3 °C 6.7 °C 1008.4 hPa NW 1.1 km/h 5.0 km/h 60% 0.0 mm 0 W/m2
17:59 14.0 °C 6.6 °C 1008.4 hPa Calm   3.5 km/h 61% 0.0 mm 0 W/m2
18:04 13.9 °C 7.0 °C 1008.4 hPa Calm   2.6 km/h 63% 0.0 mm 0 W/m2
18:09 13.9 °C 7.0 °C 1008.4 hPa Calm   2.6 km/h 63% 0.0 mm 0 W/m2
18:14 13.7 °C 7.0 °C 1008.4 hPa Calm   2.6 km/h 64% 0.0 mm 0 W/m2
18:19 13.6 °C 6.9 °C 1008.7 hPa Calm   1.1 km/h 64% 0.0 mm 0 W/m2
18:24 13.4 °C 6.9 °C 1008.7 hPa Calm   1.1 km/h 65% 0.0 mm 0 W/m2
18:29 13.3 °C 6.9 °C 1008.7 hPa Calm   1.1 km/h 65% 0.0 mm 0 W/m2
18:34 13.2 °C 6.8 °C 1008.7 hPa Calm   1.1 km/h 65% 0.0 mm 0 W/m2
18:39 12.8 °C 7.1 °C 1008.4 hPa Calm   1.1 km/h 68% 0.0 mm 0 W/m2
18:44 12.7 °C 7.4 °C 1008.7 hPa Calm   3.5 km/h 70% 0.0 mm 0 W/m2
18:49 12.7 °C 6.9 °C 1008.7 hPa Calm   3.5 km/h 68% 0.0 mm 0 W/m2
18:54 12.6 °C 6.8 °C 1008.7 hPa Calm   5.0 km/h 68% 0.0 mm 0 W/m2
18:59 12.6 °C 7.1 °C 1009.0 hPa Calm   5.0 km/h 69% 0.0 mm 0 W/m2
19:04 12.6 °C 7.1 °C 1008.7 hPa South 1.1 km/h 5.0 km/h 69% 0.0 mm 0 W/m2
19:09 12.7 °C 6.7 °C 1008.7 hPa South 1.1 km/h 5.0 km/h 67% 0.0 mm 0 W/m2
19:14 12.8 °C 7.1 °C 1009.0 hPa Calm   3.5 km/h 68% 0.0 mm 0 W/m2
19:19 12.6 °C 6.8 °C 1009.0 hPa Calm   2.6 km/h 68% 0.0 mm 0 W/m2
19:24 12.4 °C 6.9 °C 1009.0 hPa Calm   1.1 km/h 69% 0.0 mm 0 W/m2
19:29 12.3 °C 7.0 °C 1008.7 hPa Calm     70% 0.0 mm 0 W/m2
19:34 12.0 °C 6.7 °C 1009.0 hPa Calm     70% 0.0 mm 0 W/m2
19:39 11.8 °C 6.9 °C 1009.0 hPa Calm     72% 0.0 mm 0 W/m2
19:45 11.7 °C 7.0 °C 1009.0 hPa Calm   2.6 km/h 73% 0.0 mm 0 W/m2
19:50 11.6 °C 7.1 °C 1009.4 hPa East 1.1 km/h 2.6 km/h 74% 0.0 mm 0 W/m2
19:55 11.8 °C 7.3 °C 1009.4 hPa Calm   2.6 km/h 74% 0.0 mm 0 W/m2
20:00 11.8 °C 7.3 °C 1009.4 hPa Calm   2.6 km/h 74% 0.0 mm 0 W/m2
20:05 11.8 °C 7.3 °C 1009.4 hPa Calm   2.6 km/h 74% 0.0 mm 0 W/m2
20:10 11.6 °C 7.1 °C 1009.4 hPa WNW 2.6 km/h 3.5 km/h 74% 0.0 mm 0 W/m2
20:15 11.6 °C 7.3 °C 1009.0 hPa NW 2.6 km/h 3.5 km/h 75% 0.0 mm 0 W/m2
20:20 11.4 °C 7.3 °C 1009.0 hPa NW 3.5 km/h 6.1 km/h 76% 0.0 mm 0 W/m2
20:25 11.3 °C 7.2 °C 1009.0 hPa NNW 5.0 km/h 7.2 km/h 76% 0.0 mm 0 W/m2
20:30 11.3 °C 7.4 °C 1009.0 hPa NNW 3.5 km/h 7.2 km/h 77% 0.0 mm 0 W/m2
20:35 11.6 °C 7.5 °C 1009.4 hPa NNW 3.5 km/h 6.1 km/h 76% 0.0 mm 0 W/m2
20:40 11.9 °C 7.6 °C 1009.4 hPa North 3.5 km/h 7.2 km/h 75% 0.0 mm 0 W/m2
20:45 12.3 °C 7.4 °C 1009.4 hPa North 3.5 km/h 7.2 km/h 72% 0.0 mm 0 W/m2
20:50 12.5 °C 7.4 °C 1009.4 hPa North 5.0 km/h 7.2 km/h 71% 0.0 mm 0 W/m2
20:55 12.7 °C 7.4 °C 1009.4 hPa North 3.5 km/h 7.2 km/h 70% 0.0 mm 0 W/m2
21:00 12.8 °C 7.3 °C 1009.4 hPa NNW 2.6 km/h 7.2 km/h 69% 0.0 mm 0 W/m2
21:05 12.7 °C 7.4 °C 1009.4 hPa NW 2.6 km/h 6.1 km/h 70% 0.0 mm 0 W/m2
21:10 12.6 °C 7.3 °C 1009.4 hPa NW 3.5 km/h 5.0 km/h 70% 0.0 mm 0 W/m2
21:15 12.5 °C 7.4 °C 1009.7 hPa Calm   5.0 km/h 71% 0.0 mm 0 W/m2
21:20 12.4 °C 7.3 °C 1009.4 hPa NW 2.6 km/h 5.0 km/h 71% 0.0 mm 0 W/m2
21:25 12.3 °C 7.2 °C 1009.4 hPa NNW 2.6 km/h 5.0 km/h 71% 0.0 mm 0 W/m2
21:30 12.3 °C 7.2 °C 1009.4 hPa Calm   6.1 km/h 71% 0.0 mm 0 W/m2
21:35 12.3 °C 7.2 °C 1009.4 hPa Calm   6.1 km/h 71% 0.0 mm 0 W/m2
21:40 12.2 °C 7.1 °C 1009.0 hPa Calm     71% 0.0 mm 0 W/m2
21:45 12.3 °C 7.4 °C 1009.0 hPa NE 1.1 km/h 3.5 km/h 72% 0.0 mm 0 W/m2
21:50 12.6 °C 7.7 °C 1009.0 hPa NE 2.6 km/h 9.7 km/h 72% 0.0 mm 0 W/m2
21:55 12.9 °C 8.0 °C 1009.4 hPa NNE 3.5 km/h 9.7 km/h 72% 0.0 mm 0 W/m2
22:00 13.0 °C 7.9 °C 1009.4 hPa NNW 3.5 km/h 8.7 km/h 71% 0.0 mm 0 W/m2
22:06 12.7 °C 7.8 °C 1009.4 hPa NW 3.5 km/h 7.2 km/h 72% 0.0 mm 0 W/m2
22:11 12.5 °C 7.8 °C 1009.4 hPa NW 6.1 km/h 8.7 km/h 73% 0.0 mm 0 W/m2
22:16 12.3 °C 7.8 °C 1009.4 hPa NW 2.6 km/h 8.7 km/h 74% 0.0 mm 0 W/m2
22:21 12.2 °C 7.7 °C 1009.4 hPa NNW 3.5 km/h 8.7 km/h 74% 0.0 mm 0 W/m2
22:26 12.1 °C 7.8 °C 1009.4 hPa NNW 3.5 km/h 6.1 km/h 75% 0.0 mm 0 W/m2
22:31 12.0 °C 7.7 °C 1009.4 hPa NW 2.6 km/h 6.1 km/h 75% 0.0 mm 0 W/m2
22:36 12.0 °C 7.7 °C 1009.4 hPa Calm   5.0 km/h 75% 0.0 mm 0 W/m2
22:41 12.0 °C 7.7 °C 1009.4 hPa Calm   3.5 km/h 75% 0.0 mm 0 W/m2
22:46 12.0 °C 7.7 °C 1009.0 hPa NW 1.1 km/h 3.5 km/h 75% 0.0 mm 0 W/m2
22:51 12.1 °C 7.8 °C 1009.0 hPa Calm   3.5 km/h 75% 0.0 mm 0 W/m2
22:56 12.1 °C 7.8 °C 1009.4 hPa NW 2.6 km/h 3.5 km/h 75% 0.0 mm 0 W/m2
23:01 12.2 °C 8.1 °C 1009.4 hPa West 6.1 km/h 8.7 km/h 76% 0.0 mm 0 W/m2
23:03 12.2 °C 8.1 °C 1009.4 hPa WSW 12.2 km/h 17.2 km/h 76% 0.0 mm 0 W/m2
23:08 12.4 °C 8.5 °C 1009.4 hPa WSW 11.1 km/h 20.9 km/h 77% 0.0 mm 0 W/m2
23:13 12.4 °C 8.7 °C 1009.4 hPa WSW 7.2 km/h 20.9 km/h 78% 0.0 mm 0 W/m2
23:18 12.3 °C 8.9 °C 1009.4 hPa WSW 11.1 km/h 14.8 km/h 80% 0.0 mm 0 W/m2
23:23 12.4 °C 8.9 °C 1009.4 hPa WSW 5.0 km/h 15.8 km/h 79% 0.0 mm 0 W/m2
23:29 12.3 °C 8.8 °C 1009.4 hPa Calm   15.8 km/h 79% 0.0 mm 0 W/m2
23:34 12.2 °C 8.7 °C 1009.0 hPa Calm   6.1 km/h 79% 0.0 mm 0 W/m2
23:39 12.1 °C 8.6 °C 1009.4 hPa Calm     79% 0.0 mm 0 W/m2
23:45 12.0 °C 8.5 °C 1009.0 hPa Calm     79% 0.0 mm 0 W/m2
23:50 12.0 °C 8.7 °C 1009.0 hPa Calm     80% 0.0 mm 0 W/m2
23:55 12.0 °C 8.8 °C 1009.0 hPa Calm     81% 0.0 mm 0 W/m2
Northern Hawkes Bay. New Zealand Historic Data
Compliments of Weather Underground - 2 mb